createdAt,value
2023-04-21T00:00:16.173Z,97382.56
2023-04-21T00:02:42.936Z,97379.56
2023-04-21T00:05:09.862Z,97376.09
2023-04-21T00:07:36.693Z,97369.41
2023-04-21T00:10:03.392Z,97364.63
2023-04-21T00:12:30.088Z,97364.41
2023-04-21T00:14:56.811Z,97368.63
2023-04-21T00:17:23.546Z,97361.34
2023-04-21T00:19:50.284Z,97366.28
2023-04-21T00:22:16.854Z,97357.16
2023-04-21T00:24:43.485Z,97367.66
2023-04-21T00:27:10.062Z,97358.97
2023-04-21T00:29:36.688Z,97362.59
2023-04-21T00:32:03.255Z,97357.03
2023-04-21T00:34:29.858Z,97353.63
2023-04-21T00:36:56.610Z,97352.53
2023-04-21T00:39:23.227Z,97346.56
2023-04-21T00:41:49.833Z,97347.13
2023-04-21T00:44:16.413Z,97340.50
2023-04-21T00:46:43.022Z,97345.25
2023-04-21T00:49:09.932Z,97348.38
2023-04-21T00:51:36.506Z,97348.53
2023-04-21T00:54:03.072Z,97339.94
2023-04-21T00:56:29.678Z,97340.66
2023-04-21T00:58:56.246Z,97342.50
2023-04-21T01:01:22.931Z,97339.47
2023-04-21T01:03:49.774Z,97341.94
2023-04-21T01:06:16.451Z,97347.00
2023-04-21T01:08:43.076Z,97334.53
2023-04-21T01:11:09.649Z,97341.13
2023-04-21T01:13:36.274Z,97342.38
2023-04-21T01:16:02.908Z,97344.06
2023-04-21T01:18:29.899Z,97346.72
2023-04-21T01:20:56.460Z,97354.84
2023-04-21T01:23:23.036Z,97343.75
2023-04-21T01:25:49.606Z,97343.63
2023-04-21T01:28:16.668Z,97340.19
2023-04-21T01:30:43.332Z,97340.88
2023-04-21T01:33:09.950Z,97342.88
2023-04-21T01:35:36.566Z,97335.09
2023-04-21T01:38:03.125Z,97342.63
2023-04-21T01:40:29.709Z,97343.94
2023-04-21T01:42:56.301Z,97335.63
2023-04-21T01:45:23.738Z,97341.44
2023-04-21T01:47:52.884Z,97344.66
2023-04-21T01:50:19.507Z,97339.19
2023-04-21T01:52:46.134Z,97339.91
2023-04-21T01:55:12.751Z,97343.13
2023-04-21T01:57:39.347Z,97345.84
2023-04-21T02:00:05.947Z,97345.75
2023-04-21T02:02:32.742Z,97332.09
2023-04-21T02:04:59.496Z,97341.63
2023-04-21T02:07:26.069Z,97337.91
2023-04-21T02:09:52.674Z,97334.44
2023-04-21T02:12:19.249Z,97333.28
2023-04-21T02:14:45.822Z,97338.47
2023-04-21T02:17:12.492Z,97336.47
2023-04-21T02:19:39.048Z,97334.53
2023-04-21T02:22:05.657Z,97334.69
2023-04-21T02:24:32.271Z,97325.47
2023-04-21T02:26:58.954Z,97331.53
2023-04-21T02:29:25.509Z,97334.34
2023-04-21T02:32:02.937Z,97337.94
2023-04-21T02:34:37.245Z,97340.56
2023-04-21T02:37:03.849Z,97342.69
2023-04-21T02:39:30.404Z,97336.00
2023-04-21T02:41:57.035Z,97334.72
2023-04-21T02:44:23.608Z,97333.66
2023-04-21T02:46:50.281Z,97338.84
2023-04-21T02:49:17.208Z,97331.00
2023-04-21T02:51:44.108Z,97330.44
2023-04-21T02:54:10.702Z,97336.06
2023-04-21T02:56:37.254Z,97334.63
2023-04-21T02:59:03.847Z,97333.88
2023-04-21T03:01:30.439Z,97330.34
2023-04-21T03:03:57.240Z,97330.84
2023-04-21T03:06:23.990Z,97333.81
2023-04-21T03:08:50.627Z,97328.78
2023-04-21T03:11:17.270Z,97336.84
2023-04-21T03:13:43.923Z,97324.59
2023-04-21T03:16:10.581Z,97325.63
2023-04-21T03:18:37.201Z,97332.50
2023-04-21T03:21:03.823Z,97321.47
2023-04-21T03:23:30.397Z,97322.00
2023-04-21T03:25:57.009Z,97325.66
2023-04-21T03:28:23.684Z,97321.41
2023-04-21T03:30:50.243Z,97326.75
2023-04-21T03:33:16.848Z,97317.03
2023-04-21T03:35:43.407Z,97322.22
2023-04-21T03:38:10.034Z,97326.53
2023-04-21T03:40:36.833Z,97318.06
2023-04-21T03:43:03.420Z,97319.13
2023-04-21T03:45:29.998Z,97310.25
2023-04-21T03:47:56.601Z,97315.34
2023-04-21T03:50:23.192Z,97319.91
2023-04-21T03:52:49.827Z,97317.59
2023-04-21T03:55:16.417Z,97320.81
2023-04-21T03:57:43.480Z,97317.84
2023-04-21T04:00:10.104Z,97326.63
2023-04-21T04:02:37.001Z,97322.41
2023-04-21T04:05:03.779Z,97319.84
2023-04-21T04:07:30.414Z,97329.38
2023-04-21T04:09:57.094Z,97327.53
2023-04-21T04:12:23.656Z,97331.75
2023-04-21T04:14:50.311Z,97334.38
2023-04-21T04:17:16.933Z,97333.81
2023-04-21T04:19:44.555Z,97335.97
2023-04-21T04:22:11.110Z,97345.75
2023-04-21T04:24:37.696Z,97339.56
2023-04-21T04:27:04.306Z,97347.78
2023-04-21T04:29:30.956Z,97347.47
2023-04-21T04:31:57.541Z,97349.81
2023-04-21T04:34:24.122Z,97354.84
2023-04-21T04:36:50.734Z,97352.63
2023-04-21T04:39:17.460Z,97351.25
2023-04-21T04:41:44.565Z,97357.34
2023-04-21T04:44:11.225Z,97354.19
2023-04-21T04:46:37.950Z,97353.38
2023-04-21T04:49:04.553Z,97362.47
2023-04-21T04:51:31.450Z,97362.88
2023-04-21T04:53:58.040Z,97365.88
2023-04-21T04:56:24.655Z,97374.28
2023-04-21T04:58:51.248Z,97369.34
2023-04-21T05:01:17.948Z,97365.97
2023-04-21T05:03:44.802Z,97373.28
2023-04-21T05:06:11.571Z,97368.97
2023-04-21T05:08:38.185Z,97372.25
2023-04-21T05:11:04.763Z,97372.06
2023-04-21T05:13:31.433Z,97371.91
2023-04-21T05:15:58.103Z,97372.53
2023-04-21T05:18:24.700Z,97367.28
2023-04-21T05:20:51.379Z,97373.19
2023-04-21T05:23:17.984Z,97380.13
2023-04-21T05:25:44.557Z,97371.81
2023-04-21T05:28:11.155Z,97375.47
2023-04-21T05:30:38.173Z,97370.59
2023-04-21T05:33:04.802Z,97363.31
2023-04-21T05:35:31.471Z,97368.78
2023-04-21T05:37:58.172Z,97375.31
2023-04-21T05:40:24.775Z,97374.47
2023-04-21T05:42:51.382Z,97373.25
2023-04-21T05:45:18.010Z,97370.66
2023-04-21T05:47:44.689Z,97371.47
2023-04-21T05:50:11.375Z,97378.16
2023-04-21T05:52:38.022Z,97375.09
2023-04-21T05:55:04.607Z,97381.78
2023-04-21T05:57:31.218Z,97379.19
2023-04-21T05:59:57.775Z,97378.78
2023-04-21T06:02:24.947Z,97385.31
2023-04-21T06:04:51.857Z,97382.25
2023-04-21T06:07:18.864Z,97380.19
2023-04-21T06:09:45.571Z,97383.63
2023-04-21T06:12:12.164Z,97382.16
2023-04-21T06:14:38.769Z,97384.63
2023-04-21T06:17:05.404Z,97389.72
2023-04-21T06:19:33.878Z,97384.03
2023-04-21T06:22:02.513Z,97390.56
2023-04-21T06:24:29.106Z,97382.44
2023-04-21T06:26:55.727Z,97381.66
2023-04-21T06:29:22.478Z,97389.31
2023-04-21T06:31:50.227Z,97396.97
2023-04-21T06:34:17.026Z,97389.81
2023-04-21T06:36:43.830Z,97389.19
2023-04-21T06:39:10.712Z,97392.03
2023-04-21T06:41:37.344Z,97392.13
2023-04-21T06:44:03.901Z,97389.84
2023-04-21T06:46:30.684Z,97397.53
2023-04-21T06:48:57.286Z,97385.53
2023-04-21T06:51:23.886Z,97390.38
2023-04-21T06:53:50.462Z,97386.44
2023-04-21T06:56:17.030Z,97380.44
2023-04-21T06:58:43.671Z,97375.41
2023-04-21T07:01:10.293Z,97385.16
2023-04-21T07:03:37.055Z,97385.47
2023-04-21T07:06:03.916Z,97389.72
2023-04-21T07:08:30.492Z,97385.84
2023-04-21T07:10:57.147Z,97387.25
2023-04-21T07:13:23.780Z,97388.66
2023-04-21T07:15:50.694Z,97385.25
2023-04-21T07:18:17.409Z,97381.44
2023-04-21T07:20:44.019Z,97379.13
2023-04-21T07:23:10.614Z,97383.69
2023-04-21T07:25:37.221Z,97383.78
2023-04-21T07:28:03.797Z,97385.09
2023-04-21T07:30:30.388Z,97383.34
2023-04-21T07:32:57.291Z,97380.66
2023-04-21T07:35:23.966Z,97381.72
2023-04-21T07:37:50.530Z,97384.97
2023-04-21T07:40:17.397Z,97387.47
2023-04-21T07:42:44.052Z,97387.69
2023-04-21T07:45:10.754Z,97390.56
2023-04-21T07:47:37.360Z,97388.94
2023-04-21T07:50:03.965Z,97382.94
2023-04-21T07:52:30.546Z,97387.53
2023-04-21T07:54:57.196Z,97394.47
2023-04-21T07:57:23.761Z,97387.88
2023-04-21T07:59:50.324Z,97379.78
2023-04-21T08:02:16.998Z,97379.16
2023-04-21T08:04:43.888Z,97383.38
2023-04-21T08:07:10.551Z,97375.66
2023-04-21T08:09:37.538Z,97371.63
2023-04-21T08:12:04.150Z,97378.25
2023-04-21T08:14:30.957Z,97380.72
2023-04-21T08:16:57.737Z,97379.25
2023-04-21T08:19:24.501Z,97381.69
2023-04-21T08:21:51.094Z,97376.16
2023-04-21T08:24:17.779Z,97379.88
2023-04-21T08:26:44.516Z,97376.00
2023-04-21T08:29:11.124Z,97373.91
2023-04-21T08:31:37.793Z,97371.63
2023-04-21T08:34:04.556Z,97370.97
2023-04-21T08:36:31.287Z,97376.31
2023-04-21T08:38:57.902Z,97367.16
2023-04-21T08:41:24.523Z,97364.13
2023-04-21T08:43:51.121Z,97365.50
2023-04-21T08:46:17.760Z,97366.31
2023-04-21T08:48:44.412Z,97363.16
2023-04-21T08:51:10.985Z,97373.78
2023-04-21T08:53:37.573Z,97367.44
2023-04-21T08:56:11.362Z,97368.81
2023-04-21T08:58:38.632Z,97373.06
2023-04-21T09:01:05.336Z,97362.94
2023-04-21T09:03:32.092Z,97366.88
2023-04-21T09:05:59.328Z,97366.25
2023-04-21T09:08:26.250Z,97368.53
2023-04-21T09:10:53.949Z,97364.03
2023-04-21T09:13:21.777Z,97360.59
2023-04-21T09:15:48.407Z,97360.03
2023-04-21T09:18:15.044Z,97359.09
2023-04-21T09:20:41.612Z,97352.41
2023-04-21T09:23:08.213Z,97355.94
2023-04-21T09:25:34.796Z,97354.84
2023-04-21T09:28:01.392Z,97357.75
2023-04-21T09:30:27.984Z,97359.06
2023-04-21T09:32:54.584Z,97356.00
2023-04-21T09:35:21.715Z,97353.28
2023-04-21T09:37:48.327Z,97340.47
2023-04-21T09:40:14.929Z,97339.59
2023-04-21T09:42:43.079Z,97348.50
2023-04-21T09:45:29.014Z,97340.41
2023-04-21T09:47:57.850Z,97329.09
2023-04-21T09:50:51.177Z,97336.09
2023-04-21T09:53:11.059Z,97336.69
2023-04-21T09:55:37.697Z,97335.47
2023-04-21T09:58:04.260Z,97328.75
2023-04-21T10:00:30.958Z,97327.78
2023-04-21T10:02:57.682Z,97333.13
2023-04-21T10:05:24.475Z,97336.59
2023-04-21T10:07:51.115Z,97326.88
2023-04-21T10:10:17.943Z,97326.72
2023-04-21T10:12:44.535Z,97318.34
2023-04-21T10:15:11.120Z,97329.94
2023-04-21T10:17:37.765Z,97325.88
2023-04-21T10:20:04.353Z,97324.66
2023-04-21T10:22:31.032Z,97329.00
2023-04-21T10:24:57.667Z,97321.78
2023-04-21T10:27:24.263Z,97319.69
2023-04-21T10:32:21.799Z,97316.69
2023-04-21T10:34:48.430Z,97306.50
2023-04-21T10:37:15.005Z,97305.72
2023-04-21T10:39:41.571Z,97309.44
2023-04-21T10:42:08.188Z,97316.59
2023-04-21T10:44:34.766Z,97305.22
2023-04-21T10:47:01.449Z,97296.13
2023-04-21T10:49:28.063Z,97308.44
2023-04-21T10:51:54.657Z,97293.97
2023-04-21T10:54:21.378Z,97305.06
2023-04-21T10:56:48.253Z,97301.69
2023-04-21T10:59:14.814Z,97291.78
2023-04-21T11:01:41.597Z,97291.47
2023-04-21T11:04:08.400Z,97292.78
2023-04-21T11:06:35.044Z,97286.69
2023-04-21T11:09:01.605Z,97282.34
2023-04-21T11:11:28.217Z,97290.16
2023-04-21T11:13:54.773Z,97285.38
2023-04-21T11:16:21.595Z,97282.63
2023-04-21T11:18:48.248Z,97295.41
2023-04-21T11:21:14.915Z,97294.44
2023-04-21T11:23:41.504Z,97293.56
2023-04-21T11:26:08.555Z,97293.72
2023-04-21T11:28:35.148Z,97294.28
2023-04-21T11:31:01.776Z,97293.53
2023-04-21T11:33:28.564Z,97291.63
2023-04-21T11:35:55.135Z,97297.00
2023-04-21T11:38:21.793Z,97286.94
2023-04-21T11:40:48.422Z,97284.50
2023-04-21T11:43:15.008Z,97281.53
2023-04-21T11:45:41.797Z,97286.72
2023-04-21T11:48:08.397Z,97278.38
2023-04-21T11:50:35.059Z,97280.13
2023-04-21T11:53:01.620Z,97278.75
2023-04-21T11:55:28.190Z,97283.69
2023-04-21T11:57:54.775Z,97282.63
2023-04-21T12:00:21.377Z,97277.47
2023-04-21T12:02:48.082Z,97280.56
2023-04-21T12:05:14.823Z,97277.19
2023-04-21T12:07:41.421Z,97279.72
2023-04-21T12:10:08.055Z,97284.56
2023-04-21T12:12:35.808Z,97271.50
2023-04-21T12:15:02.731Z,97274.81
2023-04-21T12:17:29.365Z,97275.19
2023-04-21T12:19:55.964Z,97269.22
2023-04-21T12:22:22.557Z,97269.75
2023-04-21T12:24:49.135Z,97267.34
2023-04-21T12:27:15.760Z,97261.47
2023-04-21T12:29:42.364Z,97269.13
2023-04-21T12:32:09.176Z,97265.88
2023-04-21T12:34:35.982Z,97265.00
2023-04-21T12:37:02.643Z,97272.28
2023-04-21T12:39:29.511Z,97269.25
2023-04-21T12:41:56.436Z,97270.44
2023-04-21T12:44:23.004Z,97263.53
2023-04-21T12:46:49.602Z,97265.47
2023-04-21T12:49:16.216Z,97273.94
2023-04-21T12:51:42.796Z,97275.50
2023-04-21T12:54:09.453Z,97278.03
2023-04-21T12:56:36.058Z,97271.50
2023-04-21T12:59:02.672Z,97277.31
2023-04-21T13:01:29.461Z,97285.97
2023-04-21T13:03:56.378Z,97284.22
2023-04-21T13:06:23.117Z,97283.13
2023-04-21T13:08:49.711Z,97288.22
2023-04-21T13:11:16.662Z,97298.34
2023-04-21T13:13:43.345Z,97301.81
2023-04-21T13:16:09.960Z,97301.22
2023-04-21T13:18:36.569Z,97295.28
2023-04-21T13:21:03.129Z,97290.47
2023-04-21T13:23:29.739Z,97298.44
2023-04-21T13:25:56.360Z,97294.38
2023-04-21T13:28:22.926Z,97294.97
2023-04-21T13:30:49.872Z,97292.00
2023-04-21T13:33:16.586Z,97295.44
2023-04-21T13:35:43.267Z,97285.47
2023-04-21T13:38:10.123Z,97289.19
2023-04-21T13:40:36.698Z,97288.25
2023-04-21T13:43:03.299Z,97280.91
2023-04-21T13:45:30.015Z,97277.44
2023-04-21T13:47:56.693Z,97282.19
2023-04-21T13:50:23.291Z,97277.72
2023-04-21T13:52:50.277Z,97277.25
2023-04-21T13:55:16.913Z,97261.31
2023-04-21T13:57:43.481Z,97266.97
2023-04-21T14:00:10.125Z,97262.13
2023-04-21T14:02:36.936Z,97248.75
2023-04-21T14:05:04.003Z,97249.31
2023-04-21T14:07:30.636Z,97244.28
2023-04-21T14:09:57.299Z,97240.22
2023-04-21T14:12:23.910Z,97236.59
2023-04-21T14:14:50.480Z,97233.78
2023-04-21T14:17:17.442Z,97231.41
2023-04-21T14:19:44.028Z,97226.38
2023-04-21T14:22:10.626Z,97222.50
2023-04-21T14:24:37.212Z,97223.06
2023-04-21T14:27:03.813Z,97208.47
2023-04-21T14:29:30.537Z,97211.63
2023-04-21T14:31:57.276Z,97212.25
2023-04-21T14:34:24.010Z,97210.56
2023-04-21T14:36:50.718Z,97211.97
2023-04-21T14:39:17.278Z,97200.38
2023-04-21T14:41:44.005Z,97203.78
2023-04-21T14:44:10.586Z,97199.41
2023-04-21T14:46:37.338Z,97192.31
2023-04-21T14:49:04.003Z,97200.19
2023-04-21T14:51:30.605Z,97192.69
2023-04-21T14:53:57.312Z,97193.13
2023-04-21T14:56:23.920Z,97198.09
2023-04-21T14:58:50.546Z,97185.25
2023-04-21T15:01:17.429Z,97184.56
2023-04-21T15:03:44.145Z,97186.97
2023-04-21T15:06:10.853Z,97183.69
2023-04-21T15:08:38.526Z,97184.88
2023-04-21T15:11:05.161Z,97183.66
2023-04-21T15:13:31.781Z,97182.63
2023-04-21T15:15:58.373Z,97183.31
2023-04-21T15:18:24.957Z,97179.50
2023-04-21T15:20:51.571Z,97176.41
2023-04-21T15:23:18.165Z,97180.81
2023-04-21T15:25:44.770Z,97182.78
2023-04-21T15:28:11.496Z,97175.28
2023-04-21T15:30:38.291Z,97174.91
2023-04-21T15:33:04.944Z,97171.22
2023-04-21T15:35:31.576Z,97172.50
2023-04-21T15:37:58.227Z,97170.78
2023-04-21T15:40:24.829Z,97174.00
2023-04-21T15:42:51.441Z,97159.81
2023-04-21T15:45:18.135Z,97162.41
2023-04-21T15:47:44.909Z,97159.75
2023-04-21T15:50:11.645Z,97162.69
2023-04-21T15:52:38.267Z,97152.53
2023-04-21T15:55:04.862Z,97156.22
2023-04-21T15:57:31.451Z,97164.56
2023-04-21T15:59:58.080Z,97159.41
2023-04-21T16:02:25.043Z,97153.59
2023-04-21T16:04:52.123Z,97152.44
2023-04-21T16:07:19.037Z,97151.06
2023-04-21T16:09:45.631Z,97150.13
2023-04-21T16:12:12.315Z,97147.44
2023-04-21T16:14:50.744Z,97147.94
2023-04-21T16:17:24.809Z,97145.59
2023-04-21T16:19:53.132Z,97145.06
2023-04-21T16:22:19.730Z,97138.16
2023-04-21T16:24:46.468Z,97133.72
2023-04-21T16:27:13.133Z,97136.34
2023-04-21T16:29:39.873Z,97143.91
2023-04-21T16:32:06.636Z,97138.84
2023-04-21T16:34:33.412Z,97135.63
2023-04-21T16:37:00.123Z,97133.72
2023-04-21T16:39:26.780Z,97131.88
2023-04-21T16:41:53.348Z,97135.31
2023-04-21T16:44:20.049Z,97133.50
2023-04-21T16:46:46.801Z,97134.28
2023-04-21T16:49:14.470Z,97133.88
2023-04-21T16:51:41.097Z,97132.13
2023-04-21T16:54:08.527Z,97133.50
2023-04-21T16:56:35.261Z,97133.72
2023-04-21T16:59:01.890Z,97131.47
2023-04-21T17:01:28.559Z,97139.53
2023-04-21T17:03:55.325Z,97135.13
2023-04-21T17:06:22.024Z,97145.22
2023-04-21T17:08:48.760Z,97145.78
2023-04-21T17:11:15.345Z,97137.69
2023-04-21T17:13:42.101Z,97142.81
2023-04-21T17:16:08.725Z,97141.72
2023-04-21T17:18:35.368Z,97145.94
2023-04-21T17:21:01.950Z,97146.56
2023-04-21T17:23:28.534Z,97140.44
2023-04-21T17:25:55.129Z,97148.03
2023-04-21T17:28:21.905Z,97150.47
2023-04-21T17:30:48.536Z,97158.50
2023-04-21T17:33:17.140Z,97157.28
2023-04-21T17:35:59.788Z,97156.06
2023-04-21T17:38:29.074Z,97159.59
2023-04-21T17:40:55.773Z,97155.06
2023-04-21T17:43:22.441Z,97155.72
2023-04-21T17:45:49.046Z,97158.47
2023-04-21T17:48:15.765Z,97159.28
2023-04-21T17:50:45.450Z,97169.13
2023-04-21T17:53:12.036Z,97160.63
2023-04-21T17:55:39.065Z,97163.13
2023-04-21T17:58:05.663Z,97159.22
2023-04-21T18:00:32.355Z,97169.91
2023-04-21T18:02:59.138Z,97166.53
2023-04-21T18:05:25.887Z,97168.38
2023-04-21T18:07:52.519Z,97166.91
2023-04-21T18:10:19.127Z,97176.66
2023-04-21T18:12:46.143Z,97175.53
2023-04-21T18:15:12.736Z,97177.03
2023-04-21T18:17:39.351Z,97178.97
2023-04-21T18:20:06.027Z,97176.47
2023-04-21T18:22:32.626Z,97181.91
2023-04-21T18:24:59.206Z,97190.13
2023-04-21T18:27:25.804Z,97190.81
2023-04-21T18:29:52.622Z,97193.56
2023-04-21T18:32:19.338Z,97194.03
2023-04-21T18:34:45.940Z,97197.97
2023-04-21T18:37:12.561Z,97201.66
2023-04-21T18:39:39.168Z,97198.19
2023-04-21T18:42:05.781Z,97208.81
2023-04-21T18:44:32.366Z,97206.94
2023-04-21T18:46:59.024Z,97204.63
2023-04-21T18:49:25.600Z,97203.38
2023-04-21T18:51:52.184Z,97207.69
2023-04-21T18:54:18.787Z,97208.03
2023-04-21T18:56:45.495Z,97201.41
2023-04-21T18:59:12.097Z,97200.31
2023-04-21T19:01:40.533Z,97202.88
2023-04-21T19:04:07.951Z,97208.19
2023-04-21T19:06:34.705Z,97209.47
2023-04-21T19:09:01.417Z,97205.53
2023-04-21T19:11:27.988Z,97210.41
2023-04-21T19:13:54.652Z,97206.06
2023-04-21T19:16:21.282Z,97208.72
2023-04-21T19:18:47.914Z,97210.47
2023-04-21T19:21:14.638Z,97210.00
2023-04-21T19:23:41.210Z,97208.00
2023-04-21T19:26:07.829Z,97208.50
2023-04-21T19:28:34.437Z,97207.25
2023-04-21T19:31:01.099Z,97206.94
2023-04-21T19:33:27.744Z,97204.56
2023-04-21T19:35:54.314Z,97211.56
2023-04-21T19:38:20.905Z,97208.59
2023-04-21T19:40:47.515Z,97206.94
2023-04-21T19:43:14.115Z,97203.53
2023-04-21T19:45:40.785Z,97208.72
2023-04-21T19:48:07.480Z,97208.88
2023-04-21T19:50:34.596Z,97201.84
2023-04-21T19:53:01.153Z,97206.25
2023-04-21T19:55:27.804Z,97199.13
2023-04-21T19:57:54.416Z,97205.88
2023-04-21T20:00:21.042Z,97200.22
2023-04-21T20:02:47.680Z,97207.59
2023-04-21T20:05:14.339Z,97203.13
2023-04-21T20:07:40.977Z,97204.97
2023-04-21T20:10:07.573Z,97201.59
2023-04-21T20:12:34.163Z,97206.09
2023-04-21T20:15:00.777Z,97205.88
2023-04-21T20:17:27.404Z,97204.72
2023-04-21T20:19:54.033Z,97211.28
2023-04-21T20:22:20.616Z,97208.13
2023-04-21T20:24:47.194Z,97205.44
2023-04-21T20:27:13.813Z,97215.03
2023-04-21T20:29:40.677Z,97204.69
2023-04-21T20:32:07.390Z,97214.22
2023-04-21T20:34:34.058Z,97206.09
2023-04-21T20:37:00.661Z,97209.47
2023-04-21T20:39:27.239Z,97207.03
2023-04-21T20:42:08.778Z,97210.25
2023-04-21T20:44:38.297Z,97210.16
2023-04-21T20:47:04.918Z,97200.41
2023-04-21T20:49:31.708Z,97208.97
2023-04-21T20:51:58.395Z,97205.28
2023-04-21T20:54:25.013Z,97205.75
2023-04-21T20:56:51.627Z,97208.94
2023-04-21T20:59:21.377Z,97200.69
2023-04-21T21:01:48.054Z,97210.97
2023-04-21T21:04:14.729Z,97203.66
2023-04-21T21:06:41.481Z,97207.09
2023-04-21T21:09:08.080Z,97211.94
2023-04-21T21:11:34.674Z,97214.91
2023-04-21T21:14:01.258Z,97207.91
2023-04-21T21:16:27.872Z,97210.03
2023-04-21T21:18:54.539Z,97208.53
2023-04-21T21:21:21.127Z,97209.88
2023-04-21T21:23:47.712Z,97215.53
2023-04-21T21:26:14.335Z,97216.28
2023-04-21T21:28:40.940Z,97210.78
2023-04-21T21:31:07.565Z,97210.56
2023-04-21T21:33:34.158Z,97211.97
2023-04-21T21:36:00.740Z,97213.22
2023-04-21T21:38:27.362Z,97206.69
2023-04-21T21:40:53.935Z,97216.22
2023-04-21T21:43:20.523Z,97212.66
2023-04-21T21:45:47.191Z,97213.88
2023-04-21T21:48:13.897Z,97218.22
2023-04-21T21:50:40.618Z,97221.53
2023-04-21T21:53:07.236Z,97218.44
2023-04-21T21:55:33.837Z,97222.13
2023-04-21T21:58:00.499Z,97219.91
2023-04-21T22:00:27.084Z,97218.06
2023-04-21T22:02:53.828Z,97222.06
2023-04-21T22:05:20.728Z,97225.94
2023-04-21T22:07:47.329Z,97223.88
2023-04-21T22:10:13.956Z,97223.28
2023-04-21T22:12:40.570Z,97224.44
2023-04-21T22:15:07.180Z,97222.25
2023-04-21T22:17:33.820Z,97227.03
2023-04-21T22:20:00.485Z,97223.94
2023-04-21T22:22:27.067Z,97225.19
2023-04-21T22:24:53.694Z,97229.50
2023-04-21T22:27:20.293Z,97225.44
2023-04-21T22:29:46.906Z,97225.84
2023-04-21T22:32:13.501Z,97229.81
2023-04-21T22:34:40.204Z,97231.34
2023-04-21T22:37:06.852Z,97230.19
2023-04-21T22:39:33.522Z,97227.97
2023-04-21T22:42:00.180Z,97232.53
2023-04-21T22:44:26.746Z,97233.88
2023-04-21T22:46:53.447Z,97232.84
2023-04-21T22:49:20.172Z,97232.97
2023-04-21T22:51:46.796Z,97235.56
2023-04-21T22:54:13.438Z,97239.66
2023-04-21T22:56:40.057Z,97240.25
2023-04-21T22:59:06.652Z,97239.69
2023-04-21T23:01:33.289Z,97232.63
2023-04-21T23:04:00.029Z,97245.53
2023-04-21T23:06:26.674Z,97244.25
2023-04-21T23:08:53.272Z,97236.94
2023-04-21T23:11:19.860Z,97243.97
2023-04-21T23:13:46.509Z,97249.66
2023-04-21T23:16:13.259Z,97249.03
2023-04-21T23:18:39.958Z,97242.16
2023-04-21T23:21:06.559Z,97246.88
2023-04-21T23:23:33.178Z,97245.84
2023-04-21T23:25:59.770Z,97251.38
2023-04-21T23:28:26.382Z,97245.34
2023-04-21T23:30:52.959Z,97245.38
2023-04-21T23:33:19.572Z,97246.38
2023-04-21T23:35:46.186Z,97238.47
2023-04-21T23:38:12.784Z,97237.25
2023-04-21T23:40:39.440Z,97240.38
2023-04-21T23:43:06.156Z,97240.41
2023-04-21T23:45:32.981Z,97237.44
2023-04-21T23:47:59.566Z,97242.56
2023-04-21T23:50:26.267Z,97243.16
2023-04-21T23:52:52.864Z,97230.13
2023-04-21T23:55:19.510Z,97232.41
2023-04-21T23:57:46.141Z,97240.31
